Time;durP1;ratioP1;P1;durP2;ratioP2;P2;SDS_P1;SDS_P2;PMS_P1;PMS_P2;Temp;Humidity;BMP_temperature;BMP_pressure;BME280_temperature;BME280_humidity;BME280_pressure;Samples;Min_cycle;Max_cycle;Signal;HPM_P1;HPM_P2
2022/07/07 00:02:06;;;;;;;2.10;1.70;;;16.20;98.00;;;;;;5051919;28;20883;-74
2022/07/07 00:04:33;;;;;;;2.40;1.53;;;16.10;98.00;;;;;;5051321;28;20529;-74
2022/07/07 00:07:00;;;;;;;2.53;1.70;;;16.00;98.00;;;;;;5051689;28;20466;-74
2022/07/07 00:09:30;;;;;;;2.20;1.60;;;15.90;98.00;;;;;;5051448;28;20496;-74
2022/07/07 00:11:57;;;;;;;1.80;1.70;;;15.80;98.00;;;;;;5053258;28;20457;-74
2022/07/07 00:14:26;;;;;;;3.20;2.90;;;15.80;98.00;;;;;;5055345;28;20467;-74
2022/07/07 00:16:55;;;;;;;2.13;1.77;;;15.80;98.00;;;;;;5055600;28;20541;-75
2022/07/07 00:19:22;;;;;;;4.23;2.43;;;15.90;98.00;;;;;;5055521;28;20489;-74
2022/07/07 00:21:49;;;;;;;2.23;1.80;;;16.00;98.00;;;;;;5055367;28;20461;-75
2022/07/07 00:24:17;;;;;;;2.30;1.60;;;16.20;98.00;;;;;;5055629;28;20570;-74
2022/07/07 00:26:44;;;;;;;2.93;1.67;;;16.20;98.00;;;;;;5055241;28;20458;-74
2022/07/07 00:29:12;;;;;;;3.23;1.63;;;16.20;98.00;;;;;;5055501;28;20481;-74
2022/07/07 00:31:43;;;;;;;1.77;1.57;;;16.10;98.00;;;;;;5055353;28;20465;-74
2022/07/07 00:34:11;;;;;;;2.70;1.80;;;16.10;98.00;;;;;;5055469;28;20536;-74
2022/07/07 00:36:41;;;;;;;2.80;1.80;;;16.00;98.00;;;;;;5055178;28;20477;-74
2022/07/07 00:39:09;;;;;;;2.60;1.40;;;16.20;98.00;;;;;;5055216;28;20460;-74
2022/07/07 00:41:36;;;;;;;2.30;1.60;;;16.30;98.00;;;;;;5055293;28;20460;-74
2022/07/07 00:44:03;;;;;;;1.90;1.60;;;16.30;98.00;;;;;;5055193;28;20461;-74
2022/07/07 00:46:42;;;;;;;1.70;1.40;;;16.40;98.00;;;;;;5055076;28;20461;-74
2022/07/07 00:49:12;;;;;;;3.90;1.60;;;16.40;98.00;;;;;;5055107;28;20458;-74
2022/07/07 00:51:40;;;;;;;3.43;2.20;;;16.30;98.00;;;;;;5055263;28;20465;-74
2022/07/07 00:54:09;;;;;;;2.47;1.90;;;16.30;98.00;;;;;;5054928;28;20556;-74
2022/07/07 00:56:36;;;;;;;1.90;1.60;;;16.30;98.00;;;;;;5055174;28;20575;-74
2022/07/07 00:59:06;;;;;;;2.23;1.60;;;16.10;98.00;;;;;;5054645;28;20544;-74
2022/07/07 01:01:35;;;;;;;2.03;1.77;;;16.00;98.00;;;;;;5054891;28;20475;-74
2022/07/07 01:04:06;;;;;;;2.20;1.77;;;16.00;98.00;;;;;;5054755;28;20501;-74
2022/07/07 01:06:36;;;;;;;2.43;1.50;;;16.10;98.00;;;;;;5054674;28;20540;-74
2022/07/07 01:09:05;;;;;;;2.27;2.00;;;16.20;98.00;;;;;;5054576;28;20486;-74
2022/07/07 01:11:46;;;;;;;2.13;1.57;;;16.20;98.00;;;;;;5054538;28;20468;-74
2022/07/07 01:14:14;;;;;;;1.70;1.60;;;16.30;98.00;;;;;;5054403;28;20457;-74
2022/07/07 01:16:42;;;;;;;2.30;1.83;;;16.40;98.00;;;;;;5054353;28;20489;-74
2022/07/07 01:19:11;;;;;;;2.10;1.60;;;16.40;98.00;;;;;;5054498;28;20507;-74
2022/07/07 01:21:49;;;;;;;2.50;1.80;;;16.40;98.00;;;;;;5054517;28;20834;-74
2022/07/07 01:24:18;;;;;;;3.90;2.47;;;16.30;98.00;;;;;;5054035;28;20490;-74
2022/07/07 01:26:45;;;;;;;3.00;1.90;;;16.10;98.00;;;;;;5054383;28;20790;-74
2022/07/07 01:29:12;;;;;;;2.70;1.90;;;16.10;98.00;;;;;;5054135;28;20460;-74
2022/07/07 01:31:39;;;;;;;3.90;1.90;;;16.00;98.00;;;;;;5053980;28;20460;-74
2022/07/07 01:34:07;;;;;;;3.00;1.90;;;15.80;98.00;;;;;;5054197;28;20813;-74
2022/07/07 01:36:34;;;;;;;2.90;1.90;;;15.80;98.00;;;;;;5054029;28;20569;-74
2022/07/07 01:39:01;;;;;;;2.97;2.23;;;15.80;98.00;;;;;;5054043;28;20886;-74
2022/07/07 01:41:30;;;;;;;2.07;1.63;;;16.00;98.00;;;;;;5054290;28;20802;-74
2022/07/07 01:43:57;;;;;;;2.37;1.57;;;16.10;98.00;;;;;;5054110;28;20975;-75
2022/07/07 01:46:24;;;;;;;1.83;1.40;;;16.10;98.00;;;;;;5053997;28;20485;-75
2022/07/07 01:48:52;;;;;;;2.10;1.63;;;15.90;98.00;;;;;;5053861;28;20967;-75
2022/07/07 01:51:20;;;;;;;1.70;1.50;;;15.80;98.00;;;;;;5053849;28;20458;-74
2022/07/07 01:53:47;;;;;;;3.20;2.00;;;15.80;98.00;;;;;;5054214;28;20929;-74
2022/07/07 01:56:15;;;;;;;2.40;1.70;;;15.70;98.00;;;;;;5053977;28;20466;-74
2022/07/07 01:58:44;;;;;;;1.60;1.40;;;15.90;98.00;;;;;;5053566;28;20458;-74
2022/07/07 02:01:12;;;;;;;2.70;1.60;;;16.10;98.00;;;;;;5053646;28;20464;-75
2022/07/07 02:03:39;;;;;;;3.37;1.90;;;16.20;98.00;;;;;;5053542;28;21035;-74
2022/07/07 02:06:06;;;;;;;2.90;1.93;;;16.10;98.00;;;;;;5053306;28;20987;-74
2022/07/07 02:08:33;;;;;;;2.00;1.50;;;15.90;98.00;;;;;;5053560;28;20462;-74
2022/07/07 02:11:16;;;;;;;1.50;1.40;;;15.70;98.00;;;;;;5053452;28;20462;-74
2022/07/07 02:13:47;;;;;;;3.60;2.00;;;15.50;98.00;;;;;;5053215;28;20466;-74
2022/07/07 02:16:16;;;;;;;2.43;1.80;;;15.60;98.00;;;;;;5053365;28;20456;-75
2022/07/07 02:18:44;;;;;;;2.53;1.90;;;15.60;98.00;;;;;;5053245;28;20457;-74
2022/07/07 02:21:13;;;;;;;1.80;1.50;;;15.50;98.00;;;;;;5053327;28;20971;-74
2022/07/07 02:23:43;;;;;;;2.53;1.60;;;15.50;98.00;;;;;;5053196;28;20829;-74
2022/07/07 02:26:10;;;;;;;3.60;1.73;;;15.50;98.00;;;;;;5052992;28;20482;-74
2022/07/07 02:28:38;;;;;;;2.00;1.83;;;15.60;98.00;;;;;;5052814;28;20471;-74
2022/07/07 02:31:10;;;;;;;4.80;1.90;;;15.80;98.00;;;;;;5052923;28;20507;-74
2022/07/07 02:33:38;;;;;;;1.97;1.60;;;15.70;98.00;;;;;;5052758;28;20460;-74
2022/07/07 02:36:07;;;;;;;3.30;2.13;;;15.80;98.00;;;;;;5052467;28;20462;-74
2022/07/07 02:38:35;;;;;;;1.93;1.57;;;15.80;98.00;;;;;;5052947;28;20461;-74
2022/07/07 02:41:03;;;;;;;2.47;1.70;;;15.80;98.00;;;;;;5053067;28;20454;-74
2022/07/07 02:43:30;;;;;;;3.07;2.20;;;15.80;98.00;;;;;;5052884;28;20825;-74
2022/07/07 02:45:57;;;;;;;2.80;1.80;;;15.80;98.00;;;;;;5052590;28;20846;-74
2022/07/07 02:48:27;;;;;;;1.60;1.50;;;15.70;98.00;;;;;;5052135;28;20450;-75
2022/07/07 02:50:54;;;;;;;3.27;1.90;;;15.70;98.00;;;;;;5052384;28;20473;-74
2022/07/07 02:53:23;;;;;;;3.40;1.87;;;15.70;98.00;;;;;;5052278;28;20484;-74
2022/07/07 02:55:50;;;;;;;2.77;1.97;;;15.50;98.00;;;;;;5052687;28;20465;-74
2022/07/07 02:58:22;;;;;;;2.90;2.00;;;15.50;98.00;;;;;;5052270;28;20810;-74
2022/07/07 03:00:51;;;;;;;3.27;1.67;;;15.30;98.00;;;;;;5052190;28;20462;-74
2022/07/07 03:03:19;;;;;;;2.80;1.70;;;15.30;98.00;;;;;;5052208;28;20495;-75
2022/07/07 03:05:48;;;;;;;2.00;1.63;;;15.40;98.00;;;;;;5051174;28;20488;-74
2022/07/07 03:08:15;;;;;;;4.17;2.80;;;15.40;98.00;;;;;;5052340;28;20929;-74
2022/07/07 03:10:45;;;;;;;1.73;1.47;;;15.40;98.00;;;;;;5052252;28;20469;-74
2022/07/07 03:13:12;;;;;;;2.57;2.10;;;15.40;98.00;;;;;;5051687;28;20458;-74
2022/07/07 03:15:40;;;;;;;2.23;1.83;;;15.40;98.00;;;;;;5052159;28;20458;-74
2022/07/07 03:18:07;;;;;;;1.90;1.60;;;15.30;98.00;;;;;;5052079;28;20467;-74
2022/07/07 03:20:34;;;;;;;3.47;2.23;;;15.40;98.00;;;;;;5052254;28;20805;-74
2022/07/07 03:23:04;;;;;;;2.50;1.90;;;15.40;98.00;;;;;;5052141;28;20494;-74
2022/07/07 03:25:31;;;;;;;2.53;1.80;;;15.40;98.00;;;;;;5051982;28;20512;-74
2022/07/07 03:27:59;;;;;;;3.10;2.13;;;15.40;98.00;;;;;;5052053;28;20945;-74
2022/07/07 03:30:26;;;;;;;1.73;1.70;;;15.40;98.00;;;;;;5051899;28;20462;-74
2022/07/07 03:32:53;;;;;;;2.00;1.70;;;15.40;98.00;;;;;;5052075;28;20454;-74
2022/07/07 03:35:21;;;;;;;2.67;1.90;;;15.40;98.00;;;;;;5052104;28;20565;-74
2022/07/07 03:37:49;;;;;;;2.30;1.50;;;15.50;98.00;;;;;;5051737;28;20510;-74
2022/07/07 03:40:18;;;;;;;1.83;1.67;;;15.50;98.00;;;;;;5051880;28;20957;-74
2022/07/07 03:42:45;;;;;;;4.67;1.90;;;15.50;98.00;;;;;;5051843;28;20452;-74
2022/07/07 03:45:12;;;;;;;2.07;1.77;;;15.70;98.00;;;;;;5051680;28;20549;-74
2022/07/07 03:47:39;;;;;;;2.80;1.73;;;15.80;98.00;;;;;;5051920;28;20460;-74
2022/07/07 03:50:07;;;;;;;4.57;1.93;;;15.90;98.00;;;;;;5051701;28;20953;-74
2022/07/07 03:52:35;;;;;;;4.60;1.83;;;15.80;98.00;;;;;;5052079;28;20462;-74
2022/07/07 03:55:05;;;;;;;2.27;1.90;;;15.80;98.00;;;;;;5052147;28;20457;-74
2022/07/07 03:57:36;;;;;;;1.93;1.80;;;15.70;98.00;;;;;;5051831;28;20458;-73
2022/07/07 04:00:04;;;;;;;2.23;1.77;;;15.70;98.00;;;;;;5051596;28;20461;-74
2022/07/07 04:02:31;;;;;;;2.03;1.80;;;15.80;98.00;;;;;;5051729;28;20458;-74
2022/07/07 04:04:58;;;;;;;1.83;1.83;;;16.00;98.00;;;;;;5051486;28;21046;-74
2022/07/07 04:07:25;;;;;;;3.50;1.90;;;16.10;98.00;;;;;;5051553;28;21019;-74
2022/07/07 04:09:52;;;;;;;3.33;2.13;;;16.20;98.00;;;;;;5051576;28;20838;-74
2022/07/07 04:12:20;;;;;;;2.50;1.80;;;16.20;98.00;;;;;;5051351;28;20445;-73
2022/07/07 04:14:49;;;;;;;2.70;2.03;;;16.40;98.00;;;;;;5051413;28;20461;-73
2022/07/07 04:17:17;;;;;;;4.00;1.90;;;16.30;98.00;;;;;;5051431;28;20446;-73
2022/07/07 04:19:44;;;;;;;3.10;1.83;;;16.20;98.00;;;;;;5051478;28;20827;-74
2022/07/07 04:22:11;;;;;;;2.90;1.93;;;16.30;98.00;;;;;;5051541;28;20467;-74
2022/07/07 04:24:38;;;;;;;2.23;1.50;;;16.40;98.00;;;;;;5051555;28;20458;-74
2022/07/07 04:27:08;;;;;;;2.60;1.87;;;16.50;98.00;;;;;;5051278;28;21215;-74
2022/07/07 04:29:35;;;;;;;2.10;1.73;;;16.60;98.00;;;;;;5051743;28;20461;-74
2022/07/07 04:32:05;;;;;;;5.30;2.20;;;16.60;98.00;;;;;;5051501;28;20967;-74
2022/07/07 04:34:33;;;;;;;2.50;1.80;;;16.60;98.00;;;;;;5051541;28;20511;-74
2022/07/07 04:37:00;;;;;;;3.20;2.30;;;16.70;98.00;;;;;;5051284;28;20535;-74
2022/07/07 04:39:29;;;;;;;3.50;2.03;;;16.80;98.00;;;;;;5051377;28;20968;-74
2022/07/07 04:41:56;;;;;;;4.37;2.00;;;16.60;98.00;;;;;;5051546;28;21072;-74
2022/07/07 04:44:24;;;;;;;3.63;2.67;;;16.40;98.00;;;;;;5051364;28;20548;-74
2022/07/07 04:46:52;;;;;;;5.63;2.77;;;16.30;98.00;;;;;;5051425;28;20515;-74
2022/07/07 04:49:22;;;;;;;2.83;1.80;;;16.40;98.00;;;;;;5050005;28;20462;-74
2022/07/07 04:51:50;;;;;;;2.07;1.93;;;16.40;98.00;;;;;;5051561;28;20924;-74
2022/07/07 04:54:17;;;;;;;2.20;1.73;;;16.40;98.00;;;;;;5051273;28;20461;-73
2022/07/07 04:56:45;;;;;;;3.60;2.40;;;16.50;98.00;;;;;;5051210;28;20458;-74
2022/07/07 04:59:12;;;;;;;2.53;1.80;;;16.70;98.00;;;;;;5054325;28;20450;-74
2022/07/07 05:01:39;;;;;;;3.03;1.97;;;16.60;98.00;;;;;;5054630;28;20468;-74
2022/07/07 05:04:06;;;;;;;2.60;1.87;;;16.60;98.00;;;;;;5054631;28;20856;-74
2022/07/07 05:06:35;;;;;;;2.53;2.10;;;16.60;98.00;;;;;;5054578;28;20491;-73
2022/07/07 05:09:03;;;;;;;2.73;1.93;;;16.70;98.00;;;;;;5054550;28;20458;-74
2022/07/07 05:11:30;;;;;;;2.53;1.70;;;16.70;98.00;;;;;;5054588;28;20458;-74
2022/07/07 05:13:58;;;;;;;3.60;1.93;;;16.80;98.00;;;;;;5054645;28;20464;-74
2022/07/07 05:16:25;;;;;;;2.77;2.00;;;16.90;98.00;;;;;;5054461;28;20462;-74
2022/07/07 05:18:53;;;;;;;2.40;1.70;;;16.80;98.00;;;;;;5054328;28;20458;-74
2022/07/07 05:21:20;;;;;;;2.00;1.70;;;16.90;98.00;;;;;;5054345;28;20470;-74
2022/07/07 05:23:49;;;;;;;2.40;2.20;;;16.90;98.00;;;;;;5054275;28;20940;-74
2022/07/07 05:26:16;;;;;;;5.17;1.67;;;16.90;98.00;;;;;;5054178;28;20482;-74
2022/07/07 05:28:44;;;;;;;3.53;1.80;;;17.10;98.00;;;;;;5054451;28;20456;-74
2022/07/07 05:31:13;;;;;;;3.43;2.17;;;17.10;98.00;;;;;;5053965;28;20462;-74
2022/07/07 05:33:40;;;;;;;1.70;1.50;;;17.30;98.00;;;;;;5054166;28;20476;-74
2022/07/07 05:36:24;;;;;;;2.80;1.80;;;17.50;98.00;;;;;;5054172;28;20484;-74
2022/07/07 05:38:52;;;;;;;2.53;1.70;;;17.50;98.00;;;;;;5054288;28;20871;-74
2022/07/07 05:41:21;;;;;;;2.60;1.83;;;17.50;98.00;;;;;;5054124;28;20466;-74
2022/07/07 05:43:48;;;;;;;2.50;1.90;;;17.50;98.00;;;;;;5054207;28;20458;-73
2022/07/07 05:46:16;;;;;;;1.60;1.50;;;17.60;98.00;;;;;;5053907;28;20478;-74
2022/07/07 05:48:44;;;;;;;1.93;1.67;;;17.80;98.00;;;;;;5054194;28;20476;-74
2022/07/07 05:51:11;;;;;;;1.90;1.60;;;17.90;98.00;;;;;;5054053;28;20458;-74
2022/07/07 05:53:38;;;;;;;2.60;1.70;;;18.00;98.00;;;;;;5054029;28;20450;-74
2022/07/07 05:56:07;;;;;;;3.20;1.90;;;18.10;98.00;;;;;;5053754;28;20469;-74
2022/07/07 05:58:34;;;;;;;1.63;1.40;;;18.10;98.00;;;;;;5054015;28;20454;-74
2022/07/07 06:01:01;;;;;;;2.40;1.73;;;18.00;98.00;;;;;;5053641;28;20466;-74
2022/07/07 06:03:29;;;;;;;2.90;1.63;;;18.10;98.00;;;;;;5053630;28;20821;-74
2022/07/07 06:05:56;;;;;;;2.30;1.60;;;18.10;98.00;;;;;;5053468;28;20964;-74
2022/07/07 06:08:23;;;;;;;1.70;1.50;;;18.20;98.00;;;;;;5053140;28;21054;-74
2022/07/07 06:10:50;;;;;;;2.10;1.77;;;18.00;98.00;;;;;;5052691;28;20462;-74
2022/07/07 06:13:20;;;;;;;3.20;2.00;;;17.90;98.00;;;;;;5053154;28;20461;-73
2022/07/07 06:15:47;;;;;;;2.70;1.90;;;17.80;98.00;;;;;;5053359;28;20462;-74
2022/07/07 06:18:15;;;;;;;2.10;1.63;;;17.80;98.00;;;;;;5053520;28;20479;-79
2022/07/07 06:20:43;;;;;;;2.53;1.70;;;17.70;98.00;;;;;;5053740;28;20442;-78
2022/07/07 06:23:10;;;;;;;2.10;1.73;;;17.80;98.00;;;;;;5053338;28;20481;-78
2022/07/07 06:25:38;;;;;;;3.37;1.40;;;17.80;98.00;;;;;;5053324;28;20793;-78
2022/07/07 06:28:05;;;;;;;2.10;1.70;;;17.80;98.00;;;;;;5053294;28;20512;-78
2022/07/07 06:30:38;;;;;;;3.50;1.80;;;18.00;98.00;;;;;;5053142;28;20811;-78
2022/07/07 06:33:05;;;;;;;2.20;1.90;;;18.20;98.00;;;;;;5053395;28;20474;-79
2022/07/07 06:35:33;;;;;;;2.10;1.70;;;18.60;98.00;;;;;;5053029;28;20454;-77
2022/07/07 06:38:00;;;;;;;4.93;2.00;;;18.70;98.00;;;;;;5051889;28;20476;-78
2022/07/07 06:40:27;;;;;;;2.10;1.63;;;18.70;98.00;;;;;;5052796;28;20465;-78
2022/07/07 06:42:55;;;;;;;1.80;1.50;;;18.70;98.00;;;;;;5053005;28;20461;-78
2022/07/07 06:45:23;;;;;;;1.60;1.50;;;18.70;98.00;;;;;;5052830;28;20512;-77
2022/07/07 06:47:52;;;;;;;1.67;1.50;;;18.70;98.00;;;;;;5052824;28;20980;-79
2022/07/07 06:50:20;;;;;;;2.83;2.03;;;18.70;98.00;;;;;;5052795;28;20462;-78
2022/07/07 06:52:47;;;;;;;2.33;1.70;;;18.80;98.00;;;;;;5052858;28;20952;-79
2022/07/07 06:55:14;;;;;;;3.97;2.10;;;19.00;98.00;;;;;;5052761;28;20529;-78
2022/07/07 06:57:42;;;;;;;2.90;1.90;;;19.10;98.00;;;;;;5052540;28;20469;-77
2022/07/07 07:00:11;;;;;;;1.97;1.70;;;19.10;95.80;;;;;;5052672;28;20458;-79
2022/07/07 07:02:43;;;;;;;2.43;1.60;;;19.00;97.70;;;;;;5052678;28;20460;-77
2022/07/07 07:05:11;;;;;;;2.07;1.67;;;19.20;98.00;;;;;;5052094;28;20480;-76
2022/07/07 07:07:39;;;;;;;2.10;1.80;;;19.20;98.00;;;;;;5048942;28;20493;-79
2022/07/07 07:10:07;;;;;;;3.03;2.00;;;19.20;98.00;;;;;;5051115;28;20549;-78
2022/07/07 07:12:34;;;;;;;3.10;2.00;;;19.40;98.00;;;;;;5052238;28;20553;-79
2022/07/07 07:15:01;;;;;;;2.10;1.40;;;19.40;98.00;;;;;;5052261;28;20454;-78
2022/07/07 07:17:28;;;;;;;1.60;1.40;;;19.50;98.00;;;;;;5052250;28;20937;-78
2022/07/07 07:19:56;;;;;;;3.60;2.20;;;19.70;98.00;;;;;;5051347;28;20489;-78
2022/07/07 07:22:26;;;;;;;1.97;1.63;;;19.50;96.90;;;;;;5049358;28;20453;-71
2022/07/07 07:24:53;;;;;;;3.23;2.00;;;19.40;97.20;;;;;;5051468;28;20466;-78
2022/07/07 07:27:21;;;;;;;2.13;1.70;;;19.40;96.20;;;;;;5051310;28;20489;-78
2022/07/07 07:29:48;;;;;;;3.03;1.90;;;19.40;96.90;;;;;;5050120;28;20835;-78
2022/07/07 07:32:15;;;;;;;7.20;2.47;;;19.50;97.60;;;;;;5051321;28;20454;-79
2022/07/07 07:34:42;;;;;;;2.30;1.50;;;19.50;98.00;;;;;;5051325;28;20944;-79
2022/07/07 07:37:09;;;;;;;3.20;2.00;;;19.60;98.00;;;;;;5051152;28;20565;-76
2022/07/07 07:39:38;;;;;;;4.50;1.80;;;19.80;98.00;;;;;;5051237;28;20453;-77
2022/07/07 07:42:08;;;;;;;3.40;2.03;;;19.80;98.00;;;;;;5051208;28;20464;-77
2022/07/07 07:47:20;;;;;;;3.83;1.93;;;19.90;98.00;;;;;;5051171;28;20808;-74
2022/07/07 07:49:47;;;;;;;1.70;1.70;;;20.00;96.90;;;;;;5051237;28;20454;-75
2022/07/07 07:52:14;;;;;;;2.13;1.97;;;20.10;97.40;;;;;;5051130;28;20816;-75
2022/07/07 07:54:43;;;;;;;4.20;2.20;;;20.10;96.20;;;;;;5051098;28;20450;-74
2022/07/07 07:57:11;;;;;;;4.10;2.20;;;20.10;97.20;;;;;;5051161;28;20537;-75
2022/07/07 07:59:38;;;;;;;2.83;1.90;;;20.30;98.00;;;;;;5051308;28;20466;-74
2022/07/07 08:02:05;;;;;;;2.83;2.03;;;20.40;97.90;;;;;;5051767;28;20465;-77
2022/07/07 08:04:33;;;;;;;2.60;1.93;;;20.40;97.60;;;;;;5051026;28;20460;-75
2022/07/07 08:07:00;;;;;;;2.27;1.83;;;20.40;98.00;;;;;;5051562;28;20828;-76
2022/07/07 08:09:28;;;;;;;3.10;2.10;;;20.50;98.00;;;;;;5050891;28;20458;-77
2022/07/07 08:11:57;;;;;;;2.80;1.90;;;20.60;96.70;;;;;;5051227;28;20524;-75
2022/07/07 08:14:24;;;;;;;2.57;2.10;;;20.40;97.70;;;;;;5050823;28;20458;-77
2022/07/07 08:16:51;;;;;;;2.23;1.90;;;20.40;98.00;;;;;;5050813;28;20472;-75
2022/07/07 08:19:19;;;;;;;2.90;1.80;;;20.40;98.00;;;;;;5050729;28;20456;-77
2022/07/07 08:21:48;;;;;;;2.13;1.60;;;20.30;98.00;;;;;;5050729;28;20984;-76
2022/07/07 08:24:15;;;;;;;4.80;2.03;;;20.30;98.00;;;;;;5050684;28;20474;-76
2022/07/07 08:26:42;;;;;;;2.67;2.03;;;20.30;98.00;;;;;;5050639;28;20936;-76
2022/07/07 08:29:11;;;;;;;3.40;1.93;;;20.30;98.00;;;;;;5050742;28;20457;-77
2022/07/07 08:31:38;;;;;;;2.97;2.00;;;20.30;98.00;;;;;;5050741;28;20807;-77
2022/07/07 08:34:07;;;;;;;2.77;1.80;;;20.50;98.00;;;;;;5054143;28;20982;-74
2022/07/07 08:36:34;;;;;;;3.33;1.93;;;20.50;98.00;;;;;;5054569;28;20541;-76
2022/07/07 08:39:03;;;;;;;2.00;1.80;;;20.40;96.90;;;;;;5054465;28;20460;-76
2022/07/07 08:41:31;;;;;;;2.23;1.77;;;20.30;97.50;;;;;;5054533;28;20959;-76
2022/07/07 08:44:00;;;;;;;2.77;1.90;;;20.20;98.00;;;;;;5054437;28;20453;-76
2022/07/07 08:46:29;;;;;;;2.60;1.90;;;20.10;98.00;;;;;;5053634;28;20460;-77
2022/07/07 08:48:56;;;;;;;2.37;2.20;;;20.00;98.00;;;;;;5054803;28;20485;-74
2022/07/07 08:51:23;;;;;;;2.00;1.63;;;20.00;98.00;;;;;;5052035;28;20458;-75
2022/07/07 08:53:50;;;;;;;2.13;1.83;;;19.90;98.00;;;;;;5052176;28;20796;-75
2022/07/07 08:56:18;;;;;;;1.60;1.60;;;19.90;98.00;;;;;;5052269;28;20449;-76
2022/07/07 08:58:46;;;;;;;2.73;1.87;;;20.00;98.00;;;;;;5054933;28;20472;-74
2022/07/07 09:01:13;;;;;;;3.93;1.80;;;20.00;98.00;;;;;;5054779;28;20458;-75
2022/07/07 09:03:42;;;;;;;3.00;1.83;;;20.10;98.00;;;;;;5054721;28;20450;-75
2022/07/07 09:06:09;;;;;;;1.93;1.90;;;20.30;98.00;;;;;;5054436;28;20454;-75
2022/07/07 09:08:37;;;;;;;2.30;1.80;;;20.30;98.00;;;;;;5054526;28;20489;-75
2022/07/07 09:11:08;;;;;;;3.00;1.87;;;20.40;98.00;;;;;;5054066;28;20465;-72
2022/07/07 09:13:36;;;;;;;2.60;2.00;;;20.50;98.00;;;;;;5053325;28;20515;-73
2022/07/07 09:16:05;;;;;;;2.20;1.73;;;20.40;98.00;;;;;;5054580;28;20817;-73
2022/07/07 09:18:34;;;;;;;3.70;2.00;;;20.40;98.00;;;;;;5054219;28;20446;-74
2022/07/07 09:21:04;;;;;;;1.93;1.70;;;20.50;98.00;;;;;;5054117;28;20464;-77
2022/07/07 09:23:32;;;;;;;2.83;1.97;;;20.50;98.00;;;;;;5054465;28;20462;-74
2022/07/07 09:25:59;;;;;;;3.40;2.07;;;20.50;98.00;;;;;;5064224;28;20449;-73
2022/07/07 09:28:27;;;;;;;2.37;1.93;;;20.40;98.00;;;;;;5054991;28;20482;-72
2022/07/07 09:30:56;;;;;;;1.87;1.63;;;20.30;98.00;;;;;;5053067;28;20465;-72
2022/07/07 09:33:25;;;;;;;2.13;1.67;;;20.40;98.00;;;;;;5054398;28;20544;-75
2022/07/07 09:38:43;;;;;;;4.67;2.00;;;20.30;98.00;;;;;;5054027;28;20794;-75
2022/07/07 09:41:13;;;;;;;3.80;2.10;;;20.10;98.00;;;;;;5054138;28;20538;-75
2022/07/07 09:43:46;;;;;;;2.47;1.90;;;20.10;98.00;;;;;;5053905;28;20450;-75
2022/07/07 09:46:18;;;;;;;2.90;1.93;;;20.10;98.00;;;;;;5052951;28;20462;-75
2022/07/07 09:48:47;;;;;;;2.83;1.97;;;20.00;98.00;;;;;;5053671;28;20572;-75
2022/07/07 09:51:17;;;;;;;2.90;1.90;;;20.00;98.00;;;;;;5053908;28;20465;-75
2022/07/07 09:54:00;;;;;;;4.17;2.23;;;20.20;98.00;;;;;;5052547;28;20801;-76
2022/07/07 09:56:31;;;;;;;2.50;1.93;;;20.40;98.00;;;;;;5054002;28;20460;-76
2022/07/07 09:59:01;;;;;;;3.10;2.27;;;20.60;98.00;;;;;;5053951;28;20461;-75
2022/07/07 10:01:31;;;;;;;3.43;2.10;;;20.50;98.00;;;;;;5053713;28;20460;-75
2022/07/07 10:04:00;;;;;;;2.40;1.53;;;20.40;98.00;;;;;;5053785;28;20462;-76
2022/07/07 10:06:29;;;;;;;2.47;1.93;;;20.50;98.00;;;;;;5053782;28;20544;-76
2022/07/07 10:09:00;;;;;;;1.97;1.90;;;20.40;98.00;;;;;;5053457;28;20485;-75
2022/07/07 10:11:46;;;;;;;2.57;2.00;;;20.40;98.00;;;;;;5053476;28;20544;-76
2022/07/07 10:14:16;;;;;;;2.67;1.90;;;20.30;98.00;;;;;;5052502;28;20463;-76
2022/07/07 10:16:44;;;;;;;2.73;1.67;;;20.20;98.00;;;;;;5053479;28;20540;-76
2022/07/07 10:19:13;;;;;;;2.17;1.90;;;20.10;98.00;;;;;;5052646;28;20453;-75
2022/07/07 10:21:45;;;;;;;3.60;2.20;;;20.00;98.00;;;;;;5052664;28;20551;-75
2022/07/07 10:24:16;;;;;;;1.60;1.40;;;19.80;98.00;;;;;;5052573;28;20461;-75
2022/07/07 10:26:49;;;;;;;2.77;2.00;;;19.60;98.00;;;;;;5052594;28;20814;-76
2022/07/07 10:29:17;;;;;;;2.77;1.90;;;19.40;98.00;;;;;;5052347;28;20897;-76
2022/07/07 10:31:52;;;;;;;4.00;1.80;;;19.40;98.00;;;;;;5051047;28;20458;-76
2022/07/07 10:34:19;;;;;;;3.20;1.80;;;19.40;98.00;;;;;;5052160;28;20459;-76
2022/07/07 10:37:07;;;;;;;2.70;1.90;;;19.30;98.00;;;;;;5051004;28;20474;-75
2022/07/07 10:39:45;;;;;;;3.17;2.07;;;19.50;98.00;;;;;;5052137;28;20467;-77
2022/07/07 10:42:50;;;;;;;3.10;1.70;;;19.60;98.00;;;;;;5052206;28;20458;-76
2022/07/07 10:45:21;;;;;;;2.70;1.73;;;19.80;98.00;;;;;;5052104;28;20978;-76
2022/07/07 10:47:49;;;;;;;3.20;1.90;;;20.10;98.00;;;;;;5052050;28;20513;-76
2022/07/07 10:50:28;;;;;;;2.10;1.50;;;20.20;98.00;;;;;;5051929;28;20462;-75
2022/07/07 10:52:57;;;;;;;2.13;1.60;;;20.50;98.00;;;;;;5052256;28;20457;-75
2022/07/07 10:56:02;;;;;;;3.03;1.70;;;20.70;98.00;;;;;;5051475;28;21002;-75
2022/07/07 10:58:58;;;;;;;9.30;1.93;;;20.70;98.00;;;;;;5051888;28;20457;-75
2022/07/07 11:01:32;;;;;;;2.67;1.83;;;20.70;98.00;;;;;;5052036;28;20556;-76
2022/07/07 11:04:01;;;;;;;3.30;1.90;;;20.80;98.00;;;;;;5050587;28;20460;-75
2022/07/07 11:06:29;;;;;;;2.60;1.70;;;20.70;98.00;;;;;;5051782;28;20537;-76
2022/07/07 11:09:04;;;;;;;2.60;1.70;;;20.80;98.00;;;;;;5051690;28;20489;-76
2022/07/07 11:11:32;;;;;;;2.27;1.87;;;20.90;98.00;;;;;;5051966;28;20465;-77
2022/07/07 11:14:09;;;;;;;1.83;1.43;;;20.80;98.00;;;;;;5051968;28;20450;-77
2022/07/07 11:16:36;;;;;;;2.00;1.57;;;20.80;98.00;;;;;;5051969;28;20466;-75
2022/07/07 11:19:05;;;;;;;2.63;1.77;;;20.80;98.00;;;;;;5051653;28;20511;-76
2022/07/07 11:21:41;;;;;;;2.00;1.90;;;20.70;98.00;;;;;;5051794;28;20458;-76
2022/07/07 11:24:17;;;;;;;3.17;1.80;;;20.70;98.00;;;;;;5051724;28;20458;-76
2022/07/07 11:27:01;;;;;;;2.70;1.40;;;20.60;98.00;;;;;;5060367;28;20456;-75
2022/07/07 11:29:28;;;;;;;3.40;1.90;;;20.50;98.00;;;;;;5063157;28;20492;-76
2022/07/07 11:32:08;;;;;;;4.90;2.17;;;20.50;98.00;;;;;;5051714;28;20463;-76
2022/07/07 11:34:43;;;;;;;1.70;1.57;;;20.50;98.00;;;;;;5056679;28;20968;-76
2022/07/07 11:37:20;;;;;;;1.97;1.90;;;20.50;98.00;;;;;;5051161;28;20478;-75
2022/07/07 11:39:48;;;;;;;2.27;1.67;;;20.60;98.00;;;;;;5051277;28;20462;-76
2022/07/07 11:42:17;;;;;;;1.97;1.67;;;20.60;98.00;;;;;;5051129;28;20505;-75
2022/07/07 11:44:44;;;;;;;2.70;1.90;;;20.50;98.00;;;;;;5051102;28;20488;-75
2022/07/07 11:47:11;;;;;;;2.27;1.93;;;20.40;98.00;;;;;;5051048;28;20468;-75
2022/07/07 11:49:39;;;;;;;2.43;1.60;;;20.20;98.00;;;;;;5050948;28;20489;-74
2022/07/07 11:52:07;;;;;;;2.07;1.50;;;20.30;98.00;;;;;;5051130;28;20500;-72
2022/07/07 11:54:35;;;;;;;1.90;1.43;;;20.40;98.00;;;;;;5051001;28;20970;-73
2022/07/07 11:57:02;;;;;;;2.00;1.50;;;20.40;98.00;;;;;;5051191;28;20837;-73
2022/07/07 11:59:30;;;;;;;1.63;1.47;;;20.70;98.00;;;;;;5049749;28;20532;-73
2022/07/07 12:02:01;;;;;;;3.30;1.80;;;20.70;98.00;;;;;;5051062;28;20460;-73
2022/07/07 12:04:28;;;;;;;2.40;1.80;;;20.80;98.00;;;;;;5051264;28;20508;-73
2022/07/07 12:06:56;;;;;;;1.70;1.60;;;21.00;98.00;;;;;;5051118;28;20825;-73
2022/07/07 12:09:23;;;;;;;1.80;1.60;;;21.00;98.00;;;;;;5055114;28;20491;-73
2022/07/07 12:11:50;;;;;;;2.00;1.80;;;21.00;98.00;;;;;;5055164;28;20464;-73
2022/07/07 12:14:18;;;;;;;2.77;1.73;;;20.90;98.00;;;;;;5054916;28;20948;-73
2022/07/07 12:16:49;;;;;;;2.03;1.77;;;20.70;98.00;;;;;;5054961;28;20465;-74
2022/07/07 12:19:16;;;;;;;1.87;1.80;;;20.80;98.00;;;;;;5054923;28;20896;-74
2022/07/07 12:21:45;;;;;;;2.77;1.80;;;20.90;98.00;;;;;;5053805;28;20466;-73
2022/07/07 12:24:21;;;;;;;1.93;1.50;;;21.00;98.00;;;;;;5054821;28;20466;-73
2022/07/07 12:26:51;;;;;;;2.43;1.63;;;21.00;98.00;;;;;;5055195;28;20453;-72
2022/07/07 12:29:23;;;;;;;2.80;1.90;;;21.20;98.00;;;;;;5053315;28;20485;-73
2022/07/07 12:31:51;;;;;;;1.90;1.57;;;21.40;98.00;;;;;;5054869;28;20940;-74
2022/07/07 12:34:22;;;;;;;1.90;1.80;;;21.70;98.00;;;;;;5054670;28;20457;-75
2022/07/07 12:36:50;;;;;;;2.10;1.57;;;22.00;98.00;;;;;;5054552;28;20521;-73
2022/07/07 12:39:17;;;;;;;2.20;1.70;;;22.10;98.00;;;;;;5053162;28;20464;-73
2022/07/07 12:41:49;;;;;;;3.13;2.90;;;22.20;98.00;;;;;;5054497;28;20469;-75
2022/07/07 12:44:18;;;;;;;1.97;1.47;;;22.40;98.00;;;;;;5054248;28;20461;-76
2022/07/07 12:46:48;;;;;;;2.00;1.60;;;22.50;98.00;;;;;;5054120;28;20544;-75
2022/07/07 12:49:17;;;;;;;1.97;1.60;;;22.30;96.80;;;;;;5054391;28;20555;-75
2022/07/07 12:51:46;;;;;;;3.00;2.10;;;22.10;96.40;;;;;;5054488;28;20491;-75
2022/07/07 12:54:23;;;;;;;2.50;1.60;;;21.90;97.40;;;;;;5054362;28;20462;-76
2022/07/07 12:57:01;;;;;;;2.47;1.77;;;21.70;98.00;;;;;;5054406;28;20499;-75
2022/07/07 12:59:35;;;;;;;2.60;1.80;;;21.70;98.00;;;;;;5054308;28;20580;-75
2022/07/07 13:02:02;;;;;;;9.23;2.10;;;21.40;98.00;;;;;;5054370;28;20462;-74
2022/07/07 13:04:30;;;;;;;3.10;2.17;;;21.10;98.00;;;;;;5054240;28;20523;-75